LHX4NJ EDDF-EDDH
Flight info
| Callsign | LHX4NJ |
|---|---|
| Flight time | 0h 46m |
| Altitude | 35000 |
| Route | MARUN3W/25C MARUN Y150 TOLGI DCT SAS/N0443F340 P605 NOLGO NOLGO6A |
| Aircraft | A319/M-SDE3FGHIRWY/LB1 |
Departure
| Time | 2026-05-06 14:30 |
|---|---|
| Airport | Frankfurt Main Airport (EDDF) |
Arrival
| Time | 2026-05-06 15:16 |
|---|---|
| Airport | Hamburg Helmut Schmidt Airport (EDDH) |
| Time | Latitude | Longitude | Altitude | Speed | Heading |
|---|---|---|---|---|---|
| 2026-05-06 13:43 | 50.04853 | 8.56944 | 356 ft | 0 kts | 295° |
| 2026-05-06 13:44 | 50.04753 | 8.56881 | 360 ft | 0 kts | 294° |
| 2026-05-06 14:17 | 50.04751 | 8.56889 | 364 ft | 2 kts | 294° |
| 2026-05-06 14:18 | 50.04743 | 8.56918 | 362 ft | 3 kts | 293° |
| 2026-05-06 14:18 | 50.04735 | 8.56945 | 363 ft | 3 kts | 292° |
| 2026-05-06 14:18 | 50.04730 | 8.56973 | 363 ft | 3 kts | 249° |
| 2026-05-06 14:18 | 50.04741 | 8.56996 | 361 ft | 3 kts | 208° |
| 2026-05-06 14:19 | 50.04748 | 8.57001 | 365 ft | 1 kts | 204° |
| 2026-05-06 14:19 | 50.04733 | 8.56991 | 362 ft | 3 kts | 204° |
| 2026-05-06 14:19 | 50.04714 | 8.56978 | 363 ft | 3 kts | 204° |
| 2026-05-06 14:19 | 50.04696 | 8.56964 | 361 ft | 3 kts | 205° |
| 2026-05-06 14:20 | 50.04677 | 8.56951 | 360 ft | 3 kts | 205° |
| 2026-05-06 14:20 | 50.04659 | 8.56938 | 356 ft | 3 kts | 205° |
| 2026-05-06 14:20 | 50.04652 | 8.56933 | 363 ft | 0 kts | 205° |
| 2026-05-06 14:25 | 50.04646 | 8.56928 | 356 ft | 5 kts | 205° |
| 2026-05-06 14:25 | 50.04592 | 8.56906 | 356 ft | 10 kts | 193° |
| 2026-05-06 14:25 | 50.04538 | 8.56886 | 359 ft | 8 kts | 193° |
| 2026-05-06 14:26 | 50.04473 | 8.56862 | 359 ft | 12 kts | 194° |
| 2026-05-06 14:26 | 50.04380 | 8.56838 | 360 ft | 15 kts | 190° |
| 2026-05-06 14:26 | 50.04285 | 8.56847 | 364 ft | 14 kts | 134° |
| 2026-05-06 14:26 | 50.04297 | 8.56992 | 359 ft | 15 kts | 70° |
| 2026-05-06 14:27 | 50.04334 | 8.57146 | 362 ft | 16 kts | 70° |
| 2026-05-06 14:27 | 50.04376 | 8.57323 | 363 ft | 18 kts | 70° |
| 2026-05-06 14:27 | 50.04421 | 8.57510 | 363 ft | 18 kts | 70° |
| 2026-05-06 14:27 | 50.04391 | 8.57652 | 365 ft | 14 kts | 150° |
| 2026-05-06 14:28 | 50.04292 | 8.57712 | 364 ft | 11 kts | 159° |
| 2026-05-06 14:28 | 50.04274 | 8.57699 | 362 ft | 0 kts | 249° |
| 2026-05-06 14:29 | 50.04273 | 8.57698 | 362 ft | 1 kts | 249° |
| 2026-05-06 14:29 | 50.04227 | 8.57503 | 364 ft | 54 kts | 250° |
| 2026-05-06 14:29 | 50.04013 | 8.56607 | 357 ft | 121 kts | 250° |
| 2026-05-06 14:29 | 50.03664 | 8.55139 | 509 ft | 156 kts | 250° |
| 2026-05-06 14:30 | 50.03287 | 8.53555 | 1168 ft | 157 kts | 250° |
| 2026-05-06 14:30 | 50.02891 | 8.51939 | 1741 ft | 168 kts | 250° |
| 2026-05-06 14:30 | 50.02427 | 8.50153 | 2102 ft | 190 kts | 243° |
| 2026-05-06 14:30 | 50.01457 | 8.48667 | 2671 ft | 203 kts | 212° |
| 2026-05-06 14:31 | 50.00108 | 8.47962 | 3502 ft | 208 kts | 191° |
| 2026-05-06 14:31 | 49.98683 | 8.47680 | 4491 ft | 206 kts | 190° |
| 2026-05-06 14:31 | 49.97263 | 8.47372 | 5387 ft | 207 kts | 191° |
| 2026-05-06 14:31 | 49.95843 | 8.46986 | 6246 ft | 210 kts | 197° |
| 2026-05-06 14:32 | 49.94369 | 8.46312 | 6686 ft | 233 kts | 198° |
| 2026-05-06 14:32 | 49.92781 | 8.45536 | 7404 ft | 243 kts | 204° |
| 2026-05-06 14:32 | 49.91414 | 8.43993 | 8253 ft | 247 kts | 231° |
| 2026-05-06 14:32 | 49.90680 | 8.41582 | 9152 ft | 252 kts | 259° |
| 2026-05-06 14:33 | 49.90791 | 8.38855 | 10021 ft | 261 kts | 287° |
| 2026-05-06 14:33 | 49.91785 | 8.36478 | 10846 ft | 271 kts | 316° |
| 2026-05-06 14:33 | 49.93450 | 8.35019 | 11653 ft | 281 kts | 335° |
| 2026-05-06 14:33 | 49.95330 | 8.33788 | 12002 ft | 305 kts | 335° |
| 2026-05-06 14:34 | 49.97370 | 8.32485 | 12281 ft | 329 kts | 335° |
| 2026-05-06 14:34 | 49.99557 | 8.31088 | 12603 ft | 348 kts | 335° |
| 2026-05-06 14:34 | 50.01846 | 8.29738 | 13259 ft | 356 kts | 342° |
| 2026-05-06 14:34 | 50.04305 | 8.29047 | 13958 ft | 364 kts | 354° |
| 2026-05-06 14:35 | 50.06855 | 8.29160 | 14626 ft | 370 kts | 7° |
| 2026-05-06 14:35 | 50.09371 | 8.30124 | 15300 ft | 376 kts | 18° |
| 2026-05-06 14:35 | 50.11866 | 8.31432 | 15980 ft | 380 kts | 18° |
| 2026-05-06 14:35 | 50.14389 | 8.32758 | 16645 ft | 384 kts | 18° |
| 2026-05-06 14:36 | 50.16936 | 8.34100 | 17298 ft | 389 kts | 18° |
| 2026-05-06 14:36 | 50.19513 | 8.35452 | 17948 ft | 393 kts | 18° |
| 2026-05-06 14:36 | 50.22121 | 8.36820 | 18527 ft | 397 kts | 18° |
| 2026-05-06 14:36 | 50.24750 | 8.38203 | 19134 ft | 400 kts | 18° |
| 2026-05-06 14:37 | 50.27399 | 8.39602 | 19743 ft | 403 kts | 18° |
| 2026-05-06 14:37 | 50.30070 | 8.41018 | 20333 ft | 407 kts | 18° |
| 2026-05-06 14:37 | 50.32752 | 8.42465 | 20917 ft | 410 kts | 18° |
| 2026-05-06 14:37 | 50.35456 | 8.43943 | 21500 ft | 413 kts | 18° |
| 2026-05-06 14:38 | 50.38187 | 8.45439 | 22052 ft | 417 kts | 17° |
| 2026-05-06 14:38 | 50.40937 | 8.46948 | 22605 ft | 421 kts | 17° |
| 2026-05-06 14:38 | 50.43708 | 8.48472 | 23138 ft | 424 kts | 17° |
| 2026-05-06 14:38 | 50.46502 | 8.50009 | 23605 ft | 427 kts | 17° |
| 2026-05-06 14:39 | 50.49326 | 8.51521 | 24049 ft | 431 kts | 16° |
| 2026-05-06 14:39 | 50.52197 | 8.52947 | 24478 ft | 434 kts | 15° |
| 2026-05-06 14:39 | 50.55100 | 8.54310 | 24890 ft | 437 kts | 14° |
| 2026-05-06 14:39 | 50.58028 | 8.55652 | 25305 ft | 440 kts | 14° |
| 2026-05-06 14:40 | 50.60984 | 8.57011 | 25707 ft | 444 kts | 14° |
| 2026-05-06 14:40 | 50.63952 | 8.58400 | 26114 ft | 447 kts | 15° |
| 2026-05-06 14:40 | 50.66942 | 8.59825 | 26510 ft | 450 kts | 15° |
| 2026-05-06 14:40 | 50.69949 | 8.61278 | 26918 ft | 453 kts | 15° |
| 2026-05-06 14:41 | 50.72930 | 8.62963 | 27302 ft | 458 kts | 24° |
| 2026-05-06 14:41 | 50.75796 | 8.65212 | 27670 ft | 462 kts | 25° |
| 2026-05-06 14:41 | 50.78673 | 8.67492 | 27766 ft | 462 kts | 26° |
| 2026-05-06 14:41 | 50.81545 | 8.69780 | 27780 ft | 462 kts | 26° |
| 2026-05-06 14:42 | 50.83443 | 8.71297 | 27767 ft | 462 kts | 26° |
| 2026-05-06 14:42 | 50.86312 | 8.73594 | 27771 ft | 462 kts | 26° |
| 2026-05-06 14:42 | 50.89179 | 8.75896 | 27774 ft | 462 kts | 26° |
| 2026-05-06 14:42 | 50.92045 | 8.78193 | 27775 ft | 462 kts | 26° |
| 2026-05-06 14:43 | 50.94911 | 8.80492 | 27775 ft | 462 kts | 26° |
| 2026-05-06 14:43 | 50.97774 | 8.82798 | 27775 ft | 462 kts | 26° |
| 2026-05-06 14:43 | 51.00644 | 8.85099 | 27780 ft | 462 kts | 26° |
| 2026-05-06 14:43 | 51.03514 | 8.87404 | 27779 ft | 462 kts | 26° |
| 2026-05-06 14:44 | 51.06378 | 8.89713 | 27783 ft | 462 kts | 26° |
| 2026-05-06 14:44 | 51.09242 | 8.92027 | 27786 ft | 461 kts | 26° |
| 2026-05-06 14:44 | 51.12102 | 8.94338 | 27786 ft | 461 kts | 26° |
| 2026-05-06 14:45 | 51.17809 | 8.98951 | 27785 ft | 460 kts | 26° |
| 2026-05-06 14:45 | 51.20660 | 9.01271 | 27783 ft | 460 kts | 26° |
| 2026-05-06 14:45 | 51.23503 | 9.03589 | 27787 ft | 459 kts | 26° |
| 2026-05-06 14:45 | 51.26348 | 9.05915 | 27787 ft | 459 kts | 26° |
| 2026-05-06 14:46 | 51.29184 | 9.08237 | 27788 ft | 458 kts | 26° |
| 2026-05-06 14:46 | 51.31981 | 9.10525 | 27787 ft | 457 kts | 26° |
| 2026-05-06 14:46 | 51.34846 | 9.12868 | 27787 ft | 456 kts | 26° |
| 2026-05-06 14:46 | 51.37669 | 9.15175 | 27786 ft | 455 kts | 26° |
| 2026-05-06 14:47 | 51.40448 | 9.17448 | 27784 ft | 454 kts | 26° |
| 2026-05-06 14:47 | 51.43258 | 9.19751 | 27786 ft | 453 kts | 26° |
| 2026-05-06 14:47 | 51.46063 | 9.22057 | 27784 ft | 453 kts | 26° |
| 2026-05-06 14:47 | 51.48861 | 9.24363 | 27786 ft | 452 kts | 26° |
| 2026-05-06 14:48 | 51.51657 | 9.26673 | 27786 ft | 451 kts | 27° |
| 2026-05-06 14:48 | 51.54449 | 9.28983 | 27787 ft | 451 kts | 27° |
| 2026-05-06 14:48 | 51.57238 | 9.31294 | 27788 ft | 451 kts | 26° |
| 2026-05-06 14:48 | 51.60024 | 9.33604 | 27790 ft | 450 kts | 26° |
| 2026-05-06 14:49 | 51.62808 | 9.35913 | 27794 ft | 450 kts | 26° |
| 2026-05-06 14:49 | 51.65589 | 9.38224 | 27798 ft | 450 kts | 26° |
| 2026-05-06 14:49 | 51.68371 | 9.40539 | 27798 ft | 450 kts | 26° |
| 2026-05-06 14:49 | 51.71152 | 9.42856 | 27799 ft | 449 kts | 26° |
| 2026-05-06 14:50 | 51.73926 | 9.45167 | 27804 ft | 449 kts | 26° |
| 2026-05-06 14:50 | 51.76703 | 9.47484 | 27807 ft | 449 kts | 27° |
| 2026-05-06 14:50 | 51.79476 | 9.49803 | 27807 ft | 449 kts | 27° |
| 2026-05-06 14:50 | 51.82247 | 9.52125 | 27806 ft | 449 kts | 27° |
| 2026-05-06 14:51 | 51.85014 | 9.54447 | 27808 ft | 448 kts | 27° |
| 2026-05-06 14:51 | 51.87785 | 9.56772 | 27810 ft | 448 kts | 26° |
| 2026-05-06 14:51 | 51.90550 | 9.59093 | 27812 ft | 448 kts | 27° |
| 2026-05-06 14:51 | 51.93314 | 9.61421 | 27811 ft | 448 kts | 27° |
| 2026-05-06 14:52 | 51.96076 | 9.63751 | 27811 ft | 447 kts | 27° |
| 2026-05-06 14:52 | 51.98836 | 9.66081 | 27808 ft | 447 kts | 27° |
| 2026-05-06 14:52 | 52.01593 | 9.68417 | 27813 ft | 447 kts | 27° |
| 2026-05-06 14:52 | 52.04348 | 9.70752 | 27813 ft | 447 kts | 27° |
| 2026-05-06 14:53 | 52.07094 | 9.73077 | 27683 ft | 441 kts | 27° |
| 2026-05-06 14:53 | 52.09797 | 9.75370 | 27180 ft | 435 kts | 27° |
| 2026-05-06 14:53 | 52.12477 | 9.77650 | 26776 ft | 434 kts | 27° |
| 2026-05-06 14:53 | 52.15145 | 9.79925 | 26384 ft | 433 kts | 27° |
| 2026-05-06 14:54 | 52.17806 | 9.82195 | 26005 ft | 430 kts | 27° |
| 2026-05-06 14:54 | 52.20449 | 9.84454 | 25631 ft | 428 kts | 27° |
| 2026-05-06 14:54 | 52.23080 | 9.86706 | 25252 ft | 426 kts | 26° |
| 2026-05-06 14:54 | 52.25785 | 9.88623 | 24887 ft | 423 kts | 18° |
| 2026-05-06 14:55 | 52.28595 | 9.89974 | 24528 ft | 420 kts | 14° |
| 2026-05-06 14:55 | 52.31410 | 9.91196 | 24167 ft | 417 kts | 14° |
| 2026-05-06 14:55 | 52.34207 | 9.92422 | 23817 ft | 415 kts | 14° |
| 2026-05-06 14:55 | 52.36983 | 9.93643 | 23466 ft | 412 kts | 14° |
| 2026-05-06 14:56 | 52.39751 | 9.94862 | 23060 ft | 410 kts | 14° |
| 2026-05-06 14:56 | 52.42499 | 9.96073 | 22648 ft | 408 kts | 14° |
| 2026-05-06 14:56 | 52.45233 | 9.97278 | 22238 ft | 406 kts | 14° |
| 2026-05-06 14:56 | 52.47952 | 9.98482 | 21837 ft | 404 kts | 14° |
| 2026-05-06 14:57 | 52.50661 | 9.99687 | 21434 ft | 403 kts | 14° |
| 2026-05-06 14:57 | 52.53361 | 10.00888 | 21048 ft | 401 kts | 14° |
| 2026-05-06 14:57 | 52.56052 | 10.02083 | 20661 ft | 400 kts | 14° |
| 2026-05-06 14:57 | 52.58732 | 10.03276 | 20284 ft | 399 kts | 14° |
| 2026-05-06 14:58 | 52.61406 | 10.04471 | 19905 ft | 398 kts | 14° |
| 2026-05-06 14:58 | 52.64072 | 10.05667 | 19532 ft | 396 kts | 14° |
| 2026-05-06 14:58 | 52.66728 | 10.06858 | 19168 ft | 395 kts | 14° |
| 2026-05-06 14:58 | 52.69344 | 10.08029 | 18807 ft | 394 kts | 14° |
| 2026-05-06 14:59 | 52.72021 | 10.09226 | 18441 ft | 393 kts | 14° |
| 2026-05-06 14:59 | 52.74652 | 10.10402 | 18083 ft | 391 kts | 14° |
| 2026-05-06 14:59 | 52.77290 | 10.11450 | 17675 ft | 388 kts | 8° |
| 2026-05-06 14:59 | 52.79963 | 10.11865 | 17274 ft | 384 kts | 359° |
| 2026-05-06 15:00 | 52.82632 | 10.11947 | 16880 ft | 382 kts | 359° |
| 2026-05-06 15:00 | 52.85283 | 10.12027 | 16482 ft | 380 kts | 359° |
| 2026-05-06 15:00 | 52.87915 | 10.12109 | 16103 ft | 377 kts | 359° |
| 2026-05-06 15:00 | 52.90527 | 10.12193 | 15712 ft | 375 kts | 359° |
| 2026-05-06 15:01 | 52.93130 | 10.12280 | 15336 ft | 373 kts | 359° |
| 2026-05-06 15:01 | 52.95719 | 10.12371 | 14963 ft | 371 kts | 359° |
| 2026-05-06 15:01 | 52.98290 | 10.12462 | 14595 ft | 369 kts | 359° |
| 2026-05-06 15:01 | 53.00843 | 10.12552 | 14241 ft | 366 kts | 359° |
| 2026-05-06 15:02 | 53.03381 | 10.12641 | 13876 ft | 364 kts | 359° |
| 2026-05-06 15:02 | 53.05908 | 10.12723 | 13506 ft | 362 kts | 359° |
| 2026-05-06 15:02 | 53.08418 | 10.12802 | 13106 ft | 360 kts | 359° |
| 2026-05-06 15:02 | 53.10913 | 10.12880 | 12714 ft | 357 kts | 360° |
| 2026-05-06 15:03 | 53.13220 | 10.12953 | 12360 ft | 355 kts | 0° |
| 2026-05-06 15:03 | 53.15683 | 10.13031 | 11962 ft | 353 kts | 0° |
| 2026-05-06 15:03 | 53.18131 | 10.13114 | 11585 ft | 351 kts | 1° |
| 2026-05-06 15:03 | 53.20560 | 10.13199 | 11213 ft | 348 kts | 1° |
| 2026-05-06 15:04 | 53.22974 | 10.13284 | 10839 ft | 346 kts | 1° |
| 2026-05-06 15:04 | 53.25368 | 10.13368 | 10470 ft | 343 kts | 2° |
| 2026-05-06 15:04 | 53.27740 | 10.13301 | 10111 ft | 339 kts | 352° |
| 2026-05-06 15:04 | 53.29936 | 10.12007 | 9743 ft | 335 kts | 329° |
| 2026-05-06 15:05 | 53.31634 | 10.09428 | 9350 ft | 330 kts | 308° |
| 2026-05-06 15:05 | 53.32947 | 10.06318 | 8953 ft | 325 kts | 304° |
| 2026-05-06 15:05 | 53.34208 | 10.03205 | 8556 ft | 321 kts | 304° |
| 2026-05-06 15:05 | 53.35442 | 10.00119 | 8173 ft | 317 kts | 304° |
| 2026-05-06 15:06 | 53.36646 | 9.97066 | 7792 ft | 313 kts | 304° |
| 2026-05-06 15:06 | 53.37811 | 9.94071 | 7415 ft | 310 kts | 303° |
| 2026-05-06 15:06 | 53.38634 | 9.90766 | 7040 ft | 308 kts | 286° |
| 2026-05-06 15:06 | 53.39159 | 9.87319 | 6659 ft | 303 kts | 284° |
| 2026-05-06 15:07 | 53.39651 | 9.83911 | 6293 ft | 298 kts | 284° |
| 2026-05-06 15:07 | 53.40121 | 9.80574 | 6011 ft | 289 kts | 284° |
| 2026-05-06 15:07 | 53.40566 | 9.77373 | 5826 ft | 276 kts | 284° |
| 2026-05-06 15:07 | 53.40984 | 9.74308 | 5639 ft | 265 kts | 284° |
| 2026-05-06 15:08 | 53.41384 | 9.71358 | 5465 ft | 254 kts | 284° |
| 2026-05-06 15:08 | 53.41760 | 9.68517 | 5285 ft | 245 kts | 284° |
| 2026-05-06 15:08 | 53.42133 | 9.65783 | 5086 ft | 235 kts | 288° |
| 2026-05-06 15:08 | 53.42975 | 9.63586 | 4904 ft | 220 kts | 328° |
| 2026-05-06 15:09 | 53.44365 | 9.62924 | 4731 ft | 207 kts | 12° |
| 2026-05-06 15:09 | 53.45579 | 9.64007 | 4567 ft | 199 kts | 45° |
| 2026-05-06 15:09 | 53.46526 | 9.65697 | 4407 ft | 198 kts | 50° |
| 2026-05-06 15:09 | 53.47413 | 9.67432 | 4315 ft | 192 kts | 51° |
| 2026-05-06 15:10 | 53.48257 | 9.69114 | 4207 ft | 186 kts | 51° |
| 2026-05-06 15:10 | 53.49087 | 9.70773 | 4046 ft | 185 kts | 51° |
| 2026-05-06 15:10 | 53.49910 | 9.72418 | 3822 ft | 183 kts | 51° |
| 2026-05-06 15:10 | 53.50729 | 9.74058 | 3581 ft | 183 kts | 51° |
| 2026-05-06 15:11 | 53.51543 | 9.75687 | 3339 ft | 181 kts | 51° |
| 2026-05-06 15:11 | 53.52346 | 9.77297 | 3079 ft | 179 kts | 51° |
| 2026-05-06 15:11 | 53.53139 | 9.78887 | 2850 ft | 177 kts | 51° |
| 2026-05-06 15:11 | 53.53923 | 9.80459 | 2603 ft | 172 kts | 51° |
| 2026-05-06 15:12 | 53.54669 | 9.81957 | 2378 ft | 162 kts | 51° |
| 2026-05-06 15:12 | 53.55369 | 9.83363 | 2160 ft | 152 kts | 50° |
| 2026-05-06 15:12 | 53.56035 | 9.84701 | 1958 ft | 147 kts | 51° |
| 2026-05-06 15:12 | 53.56679 | 9.85998 | 1761 ft | 141 kts | 50° |
| 2026-05-06 15:13 | 53.57291 | 9.87229 | 1576 ft | 134 kts | 50° |
| 2026-05-06 15:13 | 53.57877 | 9.88409 | 1383 ft | 128 kts | 51° |
| 2026-05-06 15:13 | 53.58444 | 9.89551 | 1214 ft | 127 kts | 50° |
| 2026-05-06 15:13 | 53.59013 | 9.90698 | 1035 ft | 128 kts | 50° |
| 2026-05-06 15:14 | 53.59585 | 9.91858 | 847 ft | 128 kts | 50° |
| 2026-05-06 15:14 | 53.60158 | 9.93004 | 642 ft | 129 kts | 49° |
| 2026-05-06 15:14 | 53.60732 | 9.94160 | 456 ft | 129 kts | 51° |
| 2026-05-06 15:14 | 53.61319 | 9.95343 | 292 ft | 131 kts | 50° |
| 2026-05-06 15:15 | 53.61890 | 9.96498 | 112 ft | 126 kts | 50° |
| 2026-05-06 15:15 | 53.62430 | 9.97590 | 41 ft | 112 kts | 50° |
| 2026-05-06 15:15 | 53.62868 | 9.98475 | 44 ft | 89 kts | 50° |
| 2026-05-06 15:15 | 53.63182 | 9.99110 | 47 ft | 52 kts | 51° |
| 2026-05-06 15:16 | 53.63290 | 9.99519 | 47 ft | 31 kts | 97° |
| 2026-05-06 15:16 | 53.63274 | 9.99691 | 48 ft | 5 kts | 99° |
| 2026-05-06 15:16 | 53.63273 | 9.99696 | 48 ft | 0 kts | 99° |
| 2026-05-06 15:17 | 53.63270 | 9.99709 | 48 ft | 5 kts | 110° |
| 2026-05-06 15:17 | 53.63218 | 9.99767 | 48 ft | 11 kts | 153° |
| 2026-05-06 15:18 | 53.63148 | 9.99828 | 48 ft | 11 kts | 152° |
| 2026-05-06 15:18 | 53.63125 | 9.99924 | 48 ft | 10 kts | 58° |
| 2026-05-06 15:18 | 53.63177 | 10.00028 | 48 ft | 12 kts | 50° |
| 2026-05-06 15:18 | 53.63232 | 10.00140 | 48 ft | 13 kts | 51° |
| 2026-05-06 15:19 | 53.63312 | 10.00168 | 47 ft | 13 kts | 355° |
| 2026-05-06 15:19 | 53.63398 | 10.00162 | 47 ft | 11 kts | 16° |
| 2026-05-06 15:19 | 53.63410 | 10.00256 | 48 ft | 9 kts | 85° |
| 2026-05-06 15:19 | 53.63414 | 10.00335 | 48 ft | 4 kts | 85° |
| 2026-05-06 15:20 | 53.63415 | 10.00360 | 48 ft | 1 kts | 86° |
| 2026-05-06 15:20 | 53.63415 | 10.00363 | 48 ft | 0 kts | 86° |